sensor_id;sensor_type;location;lat;lon;timestamp;P1;durP1;ratioP1;P2;durP2;ratioP2
53409;SDS011;66590;50.734;4.246;2023-05-25T00:01:04;10.10;;;5.30;;
53409;SDS011;66590;50.734;4.246;2023-05-25T00:03:31;11.38;;;4.95;;
53409;SDS011;66590;50.734;4.246;2023-05-25T00:05:58;14.25;;;5.88;;
53409;SDS011;66590;50.734;4.246;2023-05-25T00:08:25;12.15;;;5.13;;
53409;SDS011;66590;50.734;4.246;2023-05-25T00:10:52;9.88;;;4.57;;
53409;SDS011;66590;50.734;4.246;2023-05-25T00:13:21;9.80;;;4.90;;
53409;SDS011;66590;50.734;4.246;2023-05-25T00:15:48;11.82;;;5.15;;
53409;SDS011;66590;50.734;4.246;2023-05-25T00:18:15;12.48;;;5.35;;
53409;SDS011;66590;50.734;4.246;2023-05-25T00:20:42;10.15;;;5.07;;
53409;SDS011;66590;50.734;4.246;2023-05-25T00:23:09;12.80;;;5.32;;
53409;SDS011;66590;50.734;4.246;2023-05-25T00:25:36;12.77;;;4.88;;
53409;SDS011;66590;50.734;4.246;2023-05-25T00:28:03;12.90;;;5.40;;
53409;SDS011;66590;50.734;4.246;2023-05-25T00:30:32;10.90;;;5.90;;
53409;SDS011;66590;50.734;4.246;2023-05-25T00:32:59;12.82;;;5.65;;
53409;SDS011;66590;50.734;4.246;2023-05-25T00:35:26;12.05;;;5.47;;
53409;SDS011;66590;50.734;4.246;2023-05-25T00:37:53;12.55;;;6.00;;
53409;SDS011;66590;50.734;4.246;2023-05-25T00:40:20;11.98;;;5.47;;
53409;SDS011;66590;50.734;4.246;2023-05-25T00:42:47;14.40;;;5.80;;
53409;SDS011;66590;50.734;4.246;2023-05-25T00:45:15;9.38;;;5.70;;
53409;SDS011;66590;50.734;4.246;2023-05-25T00:47:44;11.25;;;5.07;;
53409;SDS011;66590;50.734;4.246;2023-05-25T00:50:13;13.70;;;5.72;;
53409;SDS011;66590;50.734;4.246;2023-05-25T00:52:41;13.00;;;5.20;;
53409;SDS011;66590;50.734;4.246;2023-05-25T00:55:09;14.77;;;5.38;;
53409;SDS011;66590;50.734;4.246;2023-05-25T00:57:40;12.75;;;5.63;;
53409;SDS011;66590;50.734;4.246;2023-05-25T01:00:09;13.02;;;5.45;;
53409;SDS011;66590;50.734;4.246;2023-05-25T01:02:38;14.10;;;5.70;;
53409;SDS011;66590;50.734;4.246;2023-05-25T01:05:08;11.50;;;5.32;;
53409;SDS011;66590;50.734;4.246;2023-05-25T01:07:37;11.02;;;5.45;;
53409;SDS011;66590;50.734;4.246;2023-05-25T01:10:09;11.05;;;6.03;;
53409;SDS011;66590;50.734;4.246;2023-05-25T01:12:39;14.13;;;5.68;;
53409;SDS011;66590;50.734;4.246;2023-05-25T01:15:09;11.20;;;5.38;;
53409;SDS011;66590;50.734;4.246;2023-05-25T01:17:37;15.07;;;6.10;;
53409;SDS011;66590;50.734;4.246;2023-05-25T01:20:05;15.00;;;5.55;;
53409;SDS011;66590;50.734;4.246;2023-05-25T01:22:39;16.20;;;5.95;;
53409;SDS011;66590;50.734;4.246;2023-05-25T01:25:11;12.50;;;5.75;;
53409;SDS011;66590;50.734;4.246;2023-05-25T01:27:42;15.18;;;6.15;;
53409;SDS011;66590;50.734;4.246;2023-05-25T01:30:13;13.98;;;5.63;;
53409;SDS011;66590;50.734;4.246;2023-05-25T01:32:41;13.68;;;6.20;;
53409;SDS011;66590;50.734;4.246;2023-05-25T01:35:10;14.23;;;6.72;;
53409;SDS011;66590;50.734;4.246;2023-05-25T01:37:40;14.02;;;6.20;;
53409;SDS011;66590;50.734;4.246;2023-05-25T01:40:11;16.90;;;6.07;;
53409;SDS011;66590;50.734;4.246;2023-05-25T01:42:39;17.02;;;6.40;;
53409;SDS011;66590;50.734;4.246;2023-05-25T01:45:06;15.88;;;6.30;;
53409;SDS011;66590;50.734;4.246;2023-05-25T01:47:36;14.43;;;6.13;;
53409;SDS011;66590;50.734;4.246;2023-05-25T01:50:11;14.98;;;6.07;;
53409;SDS011;66590;50.734;4.246;2023-05-25T01:52:47;15.98;;;6.72;;
53409;SDS011;66590;50.734;4.246;2023-05-25T01:55:20;15.90;;;6.80;;
53409;SDS011;66590;50.734;4.246;2023-05-25T01:57:51;14.82;;;6.45;;
53409;SDS011;66590;50.734;4.246;2023-05-25T02:00:21;13.55;;;6.20;;
53409;SDS011;66590;50.734;4.246;2023-05-25T02:02:49;13.10;;;6.63;;
53409;SDS011;66590;50.734;4.246;2023-05-25T02:05:17;12.95;;;6.18;;
53409;SDS011;66590;50.734;4.246;2023-05-25T02:07:47;15.07;;;6.60;;
53409;SDS011;66590;50.734;4.246;2023-05-25T02:10:14;15.98;;;6.75;;
53409;SDS011;66590;50.734;4.246;2023-05-25T02:12:41;17.48;;;6.63;;
53409;SDS011;66590;50.734;4.246;2023-05-25T02:15:09;19.70;;;6.68;;
53409;SDS011;66590;50.734;4.246;2023-05-25T02:17:36;18.23;;;7.05;;
53409;SDS011;66590;50.734;4.246;2023-05-25T02:20:04;14.85;;;7.47;;
53409;SDS011;66590;50.734;4.246;2023-05-25T02:22:32;17.23;;;8.10;;
53409;SDS011;66590;50.734;4.246;2023-05-25T02:25:00;14.38;;;7.55;;
53409;SDS011;66590;50.734;4.246;2023-05-25T02:27:27;18.77;;;7.18;;
53409;SDS011;66590;50.734;4.246;2023-05-25T02:29:55;22.42;;;7.80;;
53409;SDS011;66590;50.734;4.246;2023-05-25T02:32:22;17.20;;;7.15;;
53409;SDS011;66590;50.734;4.246;2023-05-25T02:34:48;16.30;;;7.55;;
53409;SDS011;66590;50.734;4.246;2023-05-25T02:37:16;18.00;;;7.65;;
53409;SDS011;66590;50.734;4.246;2023-05-25T02:39:43;17.58;;;7.35;;
53409;SDS011;66590;50.734;4.246;2023-05-25T02:42:11;18.75;;;7.72;;
53409;SDS011;66590;50.734;4.246;2023-05-25T02:44:38;18.35;;;8.15;;
53409;SDS011;66590;50.734;4.246;2023-05-25T02:47:05;13.60;;;6.90;;
53409;SDS011;66590;50.734;4.246;2023-05-25T02:49:32;16.13;;;7.53;;
53409;SDS011;66590;50.734;4.246;2023-05-25T02:51:59;15.35;;;6.72;;
53409;SDS011;66590;50.734;4.246;2023-05-25T02:54:26;17.75;;;7.63;;
53409;SDS011;66590;50.734;4.246;2023-05-25T02:56:53;16.65;;;7.55;;
53409;SDS011;66590;50.734;4.246;2023-05-25T02:59:21;19.25;;;8.05;;
53409;SDS011;66590;50.734;4.246;2023-05-25T03:01:48;16.08;;;7.05;;
53409;SDS011;66590;50.734;4.246;2023-05-25T03:04:15;17.23;;;8.00;;
53409;SDS011;66590;50.734;4.246;2023-05-25T03:06:42;15.77;;;7.18;;
53409;SDS011;66590;50.734;4.246;2023-05-25T03:09:10;16.65;;;7.32;;
53409;SDS011;66590;50.734;4.246;2023-05-25T03:11:37;17.05;;;7.93;;
53409;SDS011;66590;50.734;4.246;2023-05-25T03:14:04;18.08;;;6.72;;
53409;SDS011;66590;50.734;4.246;2023-05-25T03:16:32;18.10;;;7.13;;
53409;SDS011;66590;50.734;4.246;2023-05-25T03:18:59;18.60;;;7.32;;
53409;SDS011;66590;50.734;4.246;2023-05-25T03:21:27;12.93;;;6.70;;
53409;SDS011;66590;50.734;4.246;2023-05-25T03:23:54;16.40;;;7.75;;
53409;SDS011;66590;50.734;4.246;2023-05-25T03:26:21;16.08;;;7.88;;
53409;SDS011;66590;50.734;4.246;2023-05-25T03:28:48;18.33;;;7.75;;
53409;SDS011;66590;50.734;4.246;2023-05-25T03:31:15;13.65;;;7.85;;
53409;SDS011;66590;50.734;4.246;2023-05-25T03:33:43;14.65;;;7.28;;
53409;SDS011;66590;50.734;4.246;2023-05-25T03:36:11;17.98;;;7.20;;
53409;SDS011;66590;50.734;4.246;2023-05-25T03:38:38;12.70;;;7.55;;
53409;SDS011;66590;50.734;4.246;2023-05-25T03:41:06;14.18;;;7.22;;
53409;SDS011;66590;50.734;4.246;2023-05-25T03:43:33;15.38;;;7.15;;
53409;SDS011;66590;50.734;4.246;2023-05-25T03:46:00;16.17;;;7.55;;
53409;SDS011;66590;50.734;4.246;2023-05-25T03:48:27;13.52;;;7.63;;
53409;SDS011;66590;50.734;4.246;2023-05-25T03:50:55;14.88;;;7.15;;
53409;SDS011;66590;50.734;4.246;2023-05-25T03:53:22;13.07;;;7.47;;
53409;SDS011;66590;50.734;4.246;2023-05-25T03:55:49;14.23;;;7.63;;
53409;SDS011;66590;50.734;4.246;2023-05-25T03:58:16;17.55;;;7.88;;
53409;SDS011;66590;50.734;4.246;2023-05-25T04:00:43;16.52;;;7.22;;
53409;SDS011;66590;50.734;4.246;2023-05-25T04:03:10;15.23;;;6.97;;
53409;SDS011;66590;50.734;4.246;2023-05-25T04:05:37;18.67;;;7.80;;
53409;SDS011;66590;50.734;4.246;2023-05-25T04:08:06;17.35;;;7.30;;
53409;SDS011;66590;50.734;4.246;2023-05-25T04:10:33;17.83;;;7.30;;
53409;SDS011;66590;50.734;4.246;2023-05-25T04:13:00;12.93;;;7.65;;
53409;SDS011;66590;50.734;4.246;2023-05-25T04:15:27;16.27;;;7.00;;
53409;SDS011;66590;50.734;4.246;2023-05-25T04:17:54;14.68;;;7.82;;
53409;SDS011;66590;50.734;4.246;2023-05-25T04:20:21;20.15;;;7.90;;
53409;SDS011;66590;50.734;4.246;2023-05-25T04:22:48;14.07;;;7.43;;
53409;SDS011;66590;50.734;4.246;2023-05-25T04:25:17;13.55;;;7.45;;
53409;SDS011;66590;50.734;4.246;2023-05-25T04:27:44;19.48;;;8.15;;
53409;SDS011;66590;50.734;4.246;2023-05-25T04:30:11;18.05;;;7.78;;
53409;SDS011;66590;50.734;4.246;2023-05-25T04:32:39;17.52;;;7.93;;
53409;SDS011;66590;50.734;4.246;2023-05-25T04:35:08;19.38;;;7.72;;
53409;SDS011;66590;50.734;4.246;2023-05-25T04:37:35;20.25;;;8.10;;
53409;SDS011;66590;50.734;4.246;2023-05-25T04:40:03;18.63;;;8.23;;
53409;SDS011;66590;50.734;4.246;2023-05-25T04:42:31;17.52;;;8.02;;
53409;SDS011;66590;50.734;4.246;2023-05-25T04:44:58;18.27;;;7.90;;
53409;SDS011;66590;50.734;4.246;2023-05-25T04:47:26;19.48;;;8.07;;
53409;SDS011;66590;50.734;4.246;2023-05-25T04:49:53;15.88;;;7.63;;
53409;SDS011;66590;50.734;4.246;2023-05-25T04:52:20;13.70;;;7.95;;
53409;SDS011;66590;50.734;4.246;2023-05-25T04:54:47;21.50;;;9.10;;
53409;SDS011;66590;50.734;4.246;2023-05-25T04:57:14;15.65;;;8.45;;
53409;SDS011;66590;50.734;4.246;2023-05-25T04:59:42;18.42;;;9.27;;
53409;SDS011;66590;50.734;4.246;2023-05-25T05:02:09;17.77;;;8.98;;
53409;SDS011;66590;50.734;4.246;2023-05-25T05:04:36;18.88;;;8.20;;
53409;SDS011;66590;50.734;4.246;2023-05-25T05:07:03;15.90;;;8.80;;
53409;SDS011;66590;50.734;4.246;2023-05-25T05:09:30;14.80;;;8.48;;
53409;SDS011;66590;50.734;4.246;2023-05-25T05:11:57;18.70;;;8.65;;
53409;SDS011;66590;50.734;4.246;2023-05-25T05:14:25;16.55;;;8.05;;
53409;SDS011;66590;50.734;4.246;2023-05-25T05:16:53;13.75;;;7.82;;
53409;SDS011;66590;50.734;4.246;2023-05-25T05:19:20;16.10;;;7.90;;
53409;SDS011;66590;50.734;4.246;2023-05-25T05:21:47;17.13;;;7.85;;
53409;SDS011;66590;50.734;4.246;2023-05-25T05:24:14;19.83;;;8.25;;
53409;SDS011;66590;50.734;4.246;2023-05-25T05:26:41;15.55;;;9.18;;
53409;SDS011;66590;50.734;4.246;2023-05-25T05:29:23;14.40;;;8.70;;
53409;SDS011;66590;50.734;4.246;2023-05-25T05:31:50;18.48;;;8.15;;
53409;SDS011;66590;50.734;4.246;2023-05-25T05:34:18;18.55;;;7.80;;
53409;SDS011;66590;50.734;4.246;2023-05-25T05:36:45;14.27;;;8.13;;
53409;SDS011;66590;50.734;4.246;2023-05-25T05:39:24;14.85;;;8.13;;
53409;SDS011;66590;50.734;4.246;2023-05-25T05:41:51;16.20;;;7.40;;
53409;SDS011;66590;50.734;4.246;2023-05-25T05:44:19;13.10;;;7.13;;
53409;SDS011;66590;50.734;4.246;2023-05-25T05:46:46;14.18;;;7.40;;
53409;SDS011;66590;50.734;4.246;2023-05-25T05:49:13;17.67;;;7.30;;
53409;SDS011;66590;50.734;4.246;2023-05-25T05:51:42;14.63;;;7.78;;
53409;SDS011;66590;50.734;4.246;2023-05-25T05:54:09;16.75;;;8.27;;
53409;SDS011;66590;50.734;4.246;2023-05-25T05:56:36;14.55;;;7.00;;
53409;SDS011;66590;50.734;4.246;2023-05-25T05:59:03;13.65;;;7.22;;
53409;SDS011;66590;50.734;4.246;2023-05-25T06:01:30;13.60;;;6.90;;
53409;SDS011;66590;50.734;4.246;2023-05-25T06:03:57;17.42;;;7.53;;
53409;SDS011;66590;50.734;4.246;2023-05-25T06:06:24;15.43;;;6.55;;
53409;SDS011;66590;50.734;4.246;2023-05-25T06:08:53;17.48;;;7.35;;
53409;SDS011;66590;50.734;4.246;2023-05-25T06:11:20;12.40;;;6.53;;
53409;SDS011;66590;50.734;4.246;2023-05-25T06:13:47;15.30;;;6.32;;
53409;SDS011;66590;50.734;4.246;2023-05-25T06:16:14;10.80;;;5.90;;
53409;SDS011;66590;50.734;4.246;2023-05-25T06:18:41;12.70;;;5.80;;
53409;SDS011;66590;50.734;4.246;2023-05-25T06:21:08;12.20;;;5.93;;
53409;SDS011;66590;50.734;4.246;2023-05-25T06:23:38;16.08;;;7.13;;
53409;SDS011;66590;50.734;4.246;2023-05-25T06:26:06;12.52;;;6.07;;
53409;SDS011;66590;50.734;4.246;2023-05-25T06:28:33;11.68;;;6.20;;
53409;SDS011;66590;50.734;4.246;2023-05-25T06:31:00;14.77;;;6.60;;
53409;SDS011;66590;50.734;4.246;2023-05-25T06:33:27;11.80;;;5.80;;
53409;SDS011;66590;50.734;4.246;2023-05-25T06:35:54;11.35;;;5.70;;
53409;SDS011;66590;50.734;4.246;2023-05-25T06:38:21;12.98;;;5.55;;
53409;SDS011;66590;50.734;4.246;2023-05-25T06:40:48;10.73;;;5.93;;
53409;SDS011;66590;50.734;4.246;2023-05-25T06:43:17;11.07;;;5.30;;
53409;SDS011;66590;50.734;4.246;2023-05-25T06:45:44;9.90;;;5.20;;
53409;SDS011;66590;50.734;4.246;2023-05-25T06:48:12;12.13;;;5.30;;
53409;SDS011;66590;50.734;4.246;2023-05-25T06:50:39;10.02;;;5.55;;
53409;SDS011;66590;50.734;4.246;2023-05-25T06:53:06;12.25;;;5.78;;
53409;SDS011;66590;50.734;4.246;2023-05-25T06:55:33;11.20;;;5.57;;
53409;SDS011;66590;50.734;4.246;2023-05-25T06:58:00;9.48;;;4.88;;
53409;SDS011;66590;50.734;4.246;2023-05-25T07:00:28;12.93;;;5.47;;
53409;SDS011;66590;50.734;4.246;2023-05-25T07:02:55;10.68;;;5.18;;
53409;SDS011;66590;50.734;4.246;2023-05-25T07:05:22;11.18;;;5.72;;
53409;SDS011;66590;50.734;4.246;2023-05-25T07:07:50;14.10;;;6.63;;
53409;SDS011;66590;50.734;4.246;2023-05-25T07:10:17;11.98;;;5.63;;
53409;SDS011;66590;50.734;4.246;2023-05-25T07:12:44;11.98;;;6.05;;
53409;SDS011;66590;50.734;4.246;2023-05-25T07:15:11;10.98;;;5.45;;
53409;SDS011;66590;50.734;4.246;2023-05-25T07:17:39;16.88;;;6.32;;
53409;SDS011;66590;50.734;4.246;2023-05-25T07:20:07;15.98;;;5.68;;
53409;SDS011;66590;50.734;4.246;2023-05-25T07:22:34;14.27;;;5.75;;
53409;SDS011;66590;50.734;4.246;2023-05-25T07:25:01;8.50;;;4.60;;
53409;SDS011;66590;50.734;4.246;2023-05-25T07:27:29;11.90;;;5.40;;
53409;SDS011;66590;50.734;4.246;2023-05-25T07:29:56;12.25;;;5.07;;
53409;SDS011;66590;50.734;4.246;2023-05-25T07:32:23;10.20;;;5.25;;
53409;SDS011;66590;50.734;4.246;2023-05-25T07:34:51;13.25;;;5.55;;
53409;SDS011;66590;50.734;4.246;2023-05-25T07:37:19;12.32;;;5.18;;
53409;SDS011;66590;50.734;4.246;2023-05-25T07:39:46;11.75;;;4.97;;
53409;SDS011;66590;50.734;4.246;2023-05-25T07:42:13;9.38;;;5.22;;
53409;SDS011;66590;50.734;4.246;2023-05-25T07:44:40;13.38;;;5.70;;
53409;SDS011;66590;50.734;4.246;2023-05-25T07:47:07;10.82;;;5.43;;
53409;SDS011;66590;50.734;4.246;2023-05-25T07:49:34;11.43;;;5.30;;
53409;SDS011;66590;50.734;4.246;2023-05-25T07:52:02;10.07;;;5.07;;
53409;SDS011;66590;50.734;4.246;2023-05-25T07:54:29;11.30;;;5.30;;
53409;SDS011;66590;50.734;4.246;2023-05-25T07:56:56;12.88;;;5.50;;
53409;SDS011;66590;50.734;4.246;2023-05-25T07:59:24;13.90;;;5.38;;
53409;SDS011;66590;50.734;4.246;2023-05-25T08:01:51;14.35;;;5.85;;
53409;SDS011;66590;50.734;4.246;2023-05-25T08:04:18;11.43;;;5.60;;
53409;SDS011;66590;50.734;4.246;2023-05-25T08:06:45;11.00;;;5.28;;
53409;SDS011;66590;50.734;4.246;2023-05-25T08:09:13;9.57;;;5.13;;
53409;SDS011;66590;50.734;4.246;2023-05-25T08:11:41;11.68;;;5.75;;
53409;SDS011;66590;50.734;4.246;2023-05-25T08:14:08;13.85;;;5.93;;
53409;SDS011;66590;50.734;4.246;2023-05-25T08:16:35;10.48;;;5.57;;
53409;SDS011;66590;50.734;4.246;2023-05-25T08:19:02;15.55;;;5.78;;
53409;SDS011;66590;50.734;4.246;2023-05-25T08:21:29;12.93;;;6.25;;
53409;SDS011;66590;50.734;4.246;2023-05-25T08:23:58;12.13;;;5.70;;
53409;SDS011;66590;50.734;4.246;2023-05-25T08:26:27;16.27;;;6.53;;
53409;SDS011;66590;50.734;4.246;2023-05-25T08:29:14;14.63;;;6.50;;
53409;SDS011;66590;50.734;4.246;2023-05-25T08:31:41;14.07;;;6.00;;
53409;SDS011;66590;50.734;4.246;2023-05-25T08:34:08;13.20;;;6.47;;
53409;SDS011;66590;50.734;4.246;2023-05-25T08:36:35;13.85;;;7.25;;
53409;SDS011;66590;50.734;4.246;2023-05-25T08:39:02;15.23;;;6.63;;
53409;SDS011;66590;50.734;4.246;2023-05-25T08:41:32;11.32;;;6.75;;
53409;SDS011;66590;50.734;4.246;2023-05-25T08:44:01;11.60;;;6.85;;
53409;SDS011;66590;50.734;4.246;2023-05-25T08:46:29;14.82;;;7.35;;
53409;SDS011;66590;50.734;4.246;2023-05-25T08:48:57;10.65;;;7.03;;
53409;SDS011;66590;50.734;4.246;2023-05-25T08:51:30;10.63;;;5.95;;
53409;SDS011;66590;50.734;4.246;2023-05-25T08:54:01;15.43;;;6.63;;
53409;SDS011;66590;50.734;4.246;2023-05-25T08:56:35;12.75;;;5.93;;
53409;SDS011;66590;50.734;4.246;2023-05-25T08:59:08;11.95;;;6.10;;
53409;SDS011;66590;50.734;4.246;2023-05-25T09:01:42;16.23;;;7.10;;
53409;SDS011;66590;50.734;4.246;2023-05-25T09:04:11;9.40;;;5.50;;
53409;SDS011;66590;50.734;4.246;2023-05-25T09:06:39;12.85;;;5.93;;
53409;SDS011;66590;50.734;4.246;2023-05-25T09:09:06;11.15;;;6.18;;
53409;SDS011;66590;50.734;4.246;2023-05-25T09:11:36;12.35;;;6.10;;
53409;SDS011;66590;50.734;4.246;2023-05-25T09:14:06;13.10;;;5.85;;
53409;SDS011;66590;50.734;4.246;2023-05-25T09:16:34;10.55;;;5.95;;
53409;SDS011;66590;50.734;4.246;2023-05-25T09:19:03;11.70;;;5.35;;
53409;SDS011;66590;50.734;4.246;2023-05-25T09:21:30;14.30;;;6.38;;
53409;SDS011;66590;50.734;4.246;2023-05-25T09:23:57;12.65;;;5.80;;
53409;SDS011;66590;50.734;4.246;2023-05-25T09:26:25;11.07;;;6.47;;
53409;SDS011;66590;50.734;4.246;2023-05-25T09:28:53;12.90;;;6.68;;
53409;SDS011;66590;50.734;4.246;2023-05-25T09:31:22;11.88;;;6.10;;
53409;SDS011;66590;50.734;4.246;2023-05-25T09:33:50;16.52;;;5.97;;
53409;SDS011;66590;50.734;4.246;2023-05-25T09:36:17;10.60;;;6.22;;
53409;SDS011;66590;50.734;4.246;2023-05-25T09:38:44;12.60;;;6.22;;
53409;SDS011;66590;50.734;4.246;2023-05-25T09:41:11;9.50;;;5.63;;
53409;SDS011;66590;50.734;4.246;2023-05-25T09:43:39;14.07;;;5.97;;
53409;SDS011;66590;50.734;4.246;2023-05-25T09:46:15;10.90;;;5.60;;
53409;SDS011;66590;50.734;4.246;2023-05-25T09:48:42;11.80;;;6.85;;
53409;SDS011;66590;50.734;4.246;2023-05-25T09:51:10;11.38;;;5.57;;
53409;SDS011;66590;50.734;4.246;2023-05-25T09:53:37;13.73;;;6.43;;
53409;SDS011;66590;50.734;4.246;2023-05-25T09:58:31;13.38;;;5.97;;
53409;SDS011;66590;50.734;4.246;2023-05-25T10:00:58;12.38;;;5.63;;
53409;SDS011;66590;50.734;4.246;2023-05-25T10:03:27;8.73;;;4.90;;
53409;SDS011;66590;50.734;4.246;2023-05-25T10:05:54;11.80;;;5.25;;
53409;SDS011;66590;50.734;4.246;2023-05-25T10:08:21;11.15;;;5.53;;
53409;SDS011;66590;50.734;4.246;2023-05-25T10:10:52;10.93;;;5.38;;
53409;SDS011;66590;50.734;4.246;2023-05-25T10:13:19;12.48;;;5.25;;
53409;SDS011;66590;50.734;4.246;2023-05-25T10:15:47;8.80;;;5.07;;
53409;SDS011;66590;50.734;4.246;2023-05-25T10:18:19;11.20;;;5.65;;
53409;SDS011;66590;50.734;4.246;2023-05-25T10:20:52;10.18;;;5.20;;
53409;SDS011;66590;50.734;4.246;2023-05-25T10:23:26;12.63;;;5.10;;
53409;SDS011;66590;50.734;4.246;2023-05-25T10:26:00;8.32;;;5.03;;
53409;SDS011;66590;50.734;4.246;2023-05-25T10:28:32;8.35;;;4.72;;
53409;SDS011;66590;50.734;4.246;2023-05-25T10:31:02;11.88;;;4.95;;
53409;SDS011;66590;50.734;4.246;2023-05-25T10:33:30;11.25;;;5.53;;
53409;SDS011;66590;50.734;4.246;2023-05-25T10:35:59;9.95;;;4.82;;
53409;SDS011;66590;50.734;4.246;2023-05-25T10:38:36;9.70;;;4.88;;
53409;SDS011;66590;50.734;4.246;2023-05-25T10:41:05;7.05;;;4.80;;
53409;SDS011;66590;50.734;4.246;2023-05-25T10:43:34;11.15;;;4.80;;
53409;SDS011;66590;50.734;4.246;2023-05-25T10:46:03;8.10;;;4.80;;
53409;SDS011;66590;50.734;4.246;2023-05-25T10:48:34;8.02;;;4.93;;
53409;SDS011;66590;50.734;4.246;2023-05-25T10:51:03;8.75;;;4.57;;
53409;SDS011;66590;50.734;4.246;2023-05-25T10:53:30;9.73;;;4.35;;
53409;SDS011;66590;50.734;4.246;2023-05-25T10:56:01;9.75;;;5.10;;
53409;SDS011;66590;50.734;4.246;2023-05-25T10:58:29;10.65;;;4.53;;
53409;SDS011;66590;50.734;4.246;2023-05-25T11:00:58;8.82;;;4.70;;
53409;SDS011;66590;50.734;4.246;2023-05-25T11:06:21;13.30;;;5.25;;
53409;SDS011;66590;50.734;4.246;2023-05-25T11:08:50;10.13;;;4.55;;
53409;SDS011;66590;50.734;4.246;2023-05-25T11:11:19;6.68;;;3.97;;
53409;SDS011;66590;50.734;4.246;2023-05-25T11:13:47;6.28;;;3.78;;
53409;SDS011;66590;50.734;4.246;2023-05-25T11:16:16;6.90;;;4.18;;
53409;SDS011;66590;50.734;4.246;2023-05-25T11:18:53;9.13;;;4.10;;
53409;SDS011;66590;50.734;4.246;2023-05-25T11:24:11;10.05;;;4.95;;
53409;SDS011;66590;50.734;4.246;2023-05-25T11:26:52;7.32;;;3.60;;
53409;SDS011;66590;50.734;4.246;2023-05-25T11:29:20;9.18;;;3.85;;
53409;SDS011;66590;50.734;4.246;2023-05-25T11:31:51;7.47;;;3.97;;
53409;SDS011;66590;50.734;4.246;2023-05-25T11:34:19;7.53;;;3.75;;
53409;SDS011;66590;50.734;4.246;2023-05-25T11:36:47;9.13;;;3.50;;
53409;SDS011;66590;50.734;4.246;2023-05-25T11:39:19;7.60;;;3.92;;
53409;SDS011;66590;50.734;4.246;2023-05-25T11:41:49;9.60;;;4.22;;
53409;SDS011;66590;50.734;4.246;2023-05-25T11:44:24;7.63;;;4.00;;
53409;SDS011;66590;50.734;4.246;2023-05-25T11:46:52;7.30;;;3.92;;
53409;SDS011;66590;50.734;4.246;2023-05-25T11:49:19;6.72;;;3.90;;
53409;SDS011;66590;50.734;4.246;2023-05-25T11:51:46;8.27;;;4.80;;
53409;SDS011;66590;50.734;4.246;2023-05-25T11:54:21;8.02;;;4.63;;
53409;SDS011;66590;50.734;4.246;2023-05-25T11:56:52;9.15;;;4.68;;
53409;SDS011;66590;50.734;4.246;2023-05-25T11:59:19;9.70;;;4.80;;
53409;SDS011;66590;50.734;4.246;2023-05-25T12:01:56;7.32;;;4.18;;
53409;SDS011;66590;50.734;4.246;2023-05-25T12:04:23;9.63;;;5.00;;
53409;SDS011;66590;50.734;4.246;2023-05-25T12:06:50;6.78;;;4.50;;
53409;SDS011;66590;50.734;4.246;2023-05-25T12:09:18;9.07;;;4.35;;
53409;SDS011;66590;50.734;4.246;2023-05-25T12:11:47;11.00;;;4.78;;
53409;SDS011;66590;50.734;4.246;2023-05-25T12:14:14;6.72;;;4.13;;
53409;SDS011;66590;50.734;4.246;2023-05-25T12:16:43;6.40;;;4.13;;
53409;SDS011;66590;50.734;4.246;2023-05-25T12:19:11;7.43;;;4.50;;
53409;SDS011;66590;50.734;4.246;2023-05-25T12:21:38;5.70;;;4.20;;
53409;SDS011;66590;50.734;4.246;2023-05-25T12:24:06;9.27;;;4.93;;
53409;SDS011;66590;50.734;4.246;2023-05-25T12:26:35;6.35;;;4.90;;
53409;SDS011;66590;50.734;4.246;2023-05-25T12:29:13;8.45;;;4.40;;
53409;SDS011;66590;50.734;4.246;2023-05-25T12:31:40;6.00;;;3.50;;
53409;SDS011;66590;50.734;4.246;2023-05-25T12:34:07;7.03;;;4.50;;
53409;SDS011;66590;50.734;4.246;2023-05-25T12:36:43;9.88;;;5.50;;
53409;SDS011;66590;50.734;4.246;2023-05-25T12:39:11;7.38;;;4.82;;
53409;SDS011;66590;50.734;4.246;2023-05-25T12:41:48;9.82;;;5.30;;
53409;SDS011;66590;50.734;4.246;2023-05-25T12:44:21;8.88;;;5.15;;
53409;SDS011;66590;50.734;4.246;2023-05-25T12:46:49;8.73;;;4.97;;
53409;SDS011;66590;50.734;4.246;2023-05-25T12:49:21;8.73;;;4.95;;
53409;SDS011;66590;50.734;4.246;2023-05-25T12:51:49;8.25;;;4.78;;
53409;SDS011;66590;50.734;4.246;2023-05-25T12:54:16;8.57;;;5.50;;
53409;SDS011;66590;50.734;4.246;2023-05-25T12:56:59;7.53;;;5.10;;
53409;SDS011;66590;50.734;4.246;2023-05-25T12:59:26;12.75;;;6.00;;
53409;SDS011;66590;50.734;4.246;2023-05-25T13:01:53;8.55;;;5.30;;
53409;SDS011;66590;50.734;4.246;2023-05-25T13:04:20;8.85;;;5.45;;
53409;SDS011;66590;50.734;4.246;2023-05-25T13:06:47;8.57;;;4.93;;
53409;SDS011;66590;50.734;4.246;2023-05-25T13:09:15;6.93;;;5.15;;
53409;SDS011;66590;50.734;4.246;2023-05-25T13:11:42;8.73;;;5.55;;
53409;SDS011;66590;50.734;4.246;2023-05-25T13:14:10;9.90;;;5.38;;
53409;SDS011;66590;50.734;4.246;2023-05-25T13:16:37;8.30;;;5.35;;
53409;SDS011;66590;50.734;4.246;2023-05-25T13:19:05;7.88;;;5.32;;
53409;SDS011;66590;50.734;4.246;2023-05-25T13:21:32;15.45;;;5.55;;
53409;SDS011;66590;50.734;4.246;2023-05-25T13:23:59;11.32;;;5.28;;
53409;SDS011;66590;50.734;4.246;2023-05-25T13:26:26;8.88;;;5.53;;
53409;SDS011;66590;50.734;4.246;2023-05-25T13:28:53;7.40;;;4.90;;
53409;SDS011;66590;50.734;4.246;2023-05-25T13:31:21;7.60;;;5.35;;
53409;SDS011;66590;50.734;4.246;2023-05-25T13:33:48;11.05;;;5.32;;
53409;SDS011;66590;50.734;4.246;2023-05-25T13:36:15;8.45;;;5.03;;
53409;SDS011;66590;50.734;4.246;2023-05-25T13:38:42;9.18;;;5.60;;
53409;SDS011;66590;50.734;4.246;2023-05-25T13:41:09;10.82;;;5.50;;
53409;SDS011;66590;50.734;4.246;2023-05-25T13:43:36;7.57;;;4.47;;
53409;SDS011;66590;50.734;4.246;2023-05-25T13:46:03;9.35;;;5.30;;
53409;SDS011;66590;50.734;4.246;2023-05-25T13:48:32;9.18;;;5.20;;
53409;SDS011;66590;50.734;4.246;2023-05-25T13:50:59;7.55;;;5.47;;
53409;SDS011;66590;50.734;4.246;2023-05-25T13:53:26;9.73;;;4.95;;
53409;SDS011;66590;50.734;4.246;2023-05-25T13:55:53;10.65;;;4.88;;
53409;SDS011;66590;50.734;4.246;2023-05-25T13:58:20;11.70;;;5.78;;
53409;SDS011;66590;50.734;4.246;2023-05-25T14:00:47;8.70;;;4.63;;
53409;SDS011;66590;50.734;4.246;2023-05-25T14:03:14;8.02;;;4.97;;
53409;SDS011;66590;50.734;4.246;2023-05-25T14:05:42;8.82;;;5.85;;
53409;SDS011;66590;50.734;4.246;2023-05-25T14:08:10;11.02;;;6.10;;
53409;SDS011;66590;50.734;4.246;2023-05-25T14:10:37;10.38;;;5.50;;
53409;SDS011;66590;50.734;4.246;2023-05-25T14:13:04;8.77;;;5.00;;
53409;SDS011;66590;50.734;4.246;2023-05-25T14:15:31;11.27;;;5.68;;
53409;SDS011;66590;50.734;4.246;2023-05-25T14:17:58;11.63;;;5.10;;
53409;SDS011;66590;50.734;4.246;2023-05-25T14:20:25;11.70;;;5.88;;
53409;SDS011;66590;50.734;4.246;2023-05-25T14:22:53;9.73;;;5.57;;
53409;SDS011;66590;50.734;4.246;2023-05-25T14:25:20;8.77;;;5.28;;
53409;SDS011;66590;50.734;4.246;2023-05-25T14:27:47;7.75;;;5.30;;
53409;SDS011;66590;50.734;4.246;2023-05-25T14:30:14;13.48;;;5.75;;
53409;SDS011;66590;50.734;4.246;2023-05-25T14:32:41;10.32;;;6.07;;
53409;SDS011;66590;50.734;4.246;2023-05-25T14:35:08;13.38;;;5.88;;
53409;SDS011;66590;50.734;4.246;2023-05-25T14:37:35;12.80;;;6.40;;
53409;SDS011;66590;50.734;4.246;2023-05-25T14:40:04;8.43;;;5.30;;
53409;SDS011;66590;50.734;4.246;2023-05-25T14:42:32;10.50;;;6.25;;
53409;SDS011;66590;50.734;4.246;2023-05-25T14:44:59;11.05;;;5.78;;
53409;SDS011;66590;50.734;4.246;2023-05-25T14:47:26;14.35;;;6.10;;
53409;SDS011;66590;50.734;4.246;2023-05-25T14:49:53;9.32;;;5.60;;
53409;SDS011;66590;50.734;4.246;2023-05-25T14:52:20;10.18;;;5.53;;